Time;durP1;ratioP1;P1;durP2;ratioP2;P2;SDS_P1;SDS_P2;PMS_P1;PMS_P2;Temp;Humidity;BMP_temperature;BMP_pressure;BME280_temperature;BME280_humidity;BME280_pressure;Samples;Min_cycle;Max_cycle;Signal;HPM_P1;HPM_P2
2024/01/17 00:00:15;;;;;;;20.93;12.57;;;;;;;;;;5078893;28;20442;-79
2024/01/17 00:02:41;;;;;;;16.13;12.80;;;;;;;;;;5079274;28;20496;-80
2024/01/17 00:05:10;;;;;;;21.30;13.83;;;;;;;;;;5079755;28;20841;-80
2024/01/17 00:07:38;;;;;;;19.80;12.80;;;;;;;;;;5079183;28;20873;-80
2024/01/17 00:10:07;;;;;;;25.00;14.70;;;;;;;;;;5079666;28;20447;-79
2024/01/17 00:12:37;;;;;;;17.17;13.13;;;;;;;;;;5079395;28;20475;-80
2024/01/17 00:15:03;;;;;;;20.33;13.50;;;;;;;;;;5079641;28;20541;-80
2024/01/17 00:17:30;;;;;;;18.20;12.20;;;;;;;;;;5079106;28;20496;-79
2024/01/17 00:19:57;;;;;;;18.60;13.53;;;;;;;;;;5079391;28;20530;-80
2024/01/17 00:22:23;;;;;;;26.13;13.97;;;;;;;;;;5080088;28;20442;-80
2024/01/17 00:24:51;;;;;;;19.03;12.07;;;;;;;;;;5079668;28;20542;-79
2024/01/17 00:27:23;;;;;;;20.20;13.03;;;;;;;;;;5078256;28;20545;-79
2024/01/17 00:29:56;;;;;;;16.83;12.20;;;;;;;;;;5079204;28;20502;-80
2024/01/17 00:32:23;;;;;;;19.40;14.30;;;;;;;;;;5079750;28;20528;-79
2024/01/17 00:34:49;;;;;;;16.70;12.93;;;;;;;;;;5078720;28;20478;-80
2024/01/17 00:37:16;;;;;;;15.00;11.80;;;;;;;;;;5079798;28;20506;-79
2024/01/17 00:39:42;;;;;;;17.63;12.80;;;;;;;;;;5078927;28;20473;-79
2024/01/17 00:42:09;;;;;;;18.53;11.80;;;;;;;;;;5079291;28;20534;-79
2024/01/17 00:44:38;;;;;;;15.60;12.30;;;;;;;;;;5078650;28;20488;-80
2024/01/17 00:47:04;;;;;;;12.47;10.10;;;;;;;;;;5079522;28;20511;-80
2024/01/17 00:49:31;;;;;;;17.67;11.90;;;;;;;;;;5078898;28;20542;-79
2024/01/17 00:52:00;;;;;;;16.80;11.90;;;;;;;;;;5078764;28;20486;-80
2024/01/17 00:54:26;;;;;;;16.70;11.57;;;;;;;;;;5078933;28;20550;-80
2024/01/17 00:56:53;;;;;;;20.20;11.80;;;;;;;;;;5078862;28;20894;-80
2024/01/17 00:59:20;;;;;;;18.80;12.80;;;;;;;;;;5078791;28;20549;-80
2024/01/17 01:01:47;;;;;;;16.40;11.07;;;;;;;;;;5079870;28;20439;-79
2024/01/17 01:04:14;;;;;;;15.60;11.60;;;;;;;;;;5079430;28;20550;-80
2024/01/17 01:06:41;;;;;;;18.50;11.63;;;;;;;;;;5079308;28;20992;-79
2024/01/17 01:09:09;;;;;;;16.87;10.50;;;;;;;;;;5078605;28;20491;-79
2024/01/17 01:11:36;;;;;;;18.53;10.67;;;;;;;;;;5079305;28;21000;-79
2024/01/17 01:14:03;;;;;;;18.10;10.67;;;;;;;;;;5077919;28;20471;-80
2024/01/17 01:16:29;;;;;;;13.23;11.03;;;;;;;;;;5079264;28;20601;-79
2024/01/17 01:18:59;;;;;;;21.97;12.10;;;;;;;;;;5078471;28;20898;-79
2024/01/17 01:21:26;;;;;;;17.33;11.83;;;;;;;;;;5079181;28;20459;-79
2024/01/17 01:23:52;;;;;;;13.60;11.37;;;;;;;;;;5078672;28;20544;-79
2024/01/17 01:26:19;;;;;;;15.20;11.20;;;;;;;;;;5079078;28;20554;-80
2024/01/17 01:28:45;;;;;;;19.00;11.20;;;;;;;;;;5079040;28;20534;-79
2024/01/17 01:31:12;;;;;;;16.43;12.60;;;;;;;;;;5078731;28;20530;-80
2024/01/17 01:33:38;;;;;;;17.47;11.60;;;;;;;;;;5078550;28;20556;-80
2024/01/17 01:36:07;;;;;;;14.53;9.80;;;;;;;;;;5079319;28;20542;-79
2024/01/17 01:38:34;;;;;;;23.13;12.30;;;;;;;;;;5078593;28;20467;-79
2024/01/17 01:41:00;;;;;;;15.47;12.40;;;;;;;;;;5078691;28;20538;-79
2024/01/17 01:43:27;;;;;;;21.30;12.37;;;;;;;;;;5078083;28;20555;-79
2024/01/17 01:46:05;;;;;;;17.67;12.37;;;;;;;;;;5078641;28;20524;-79
2024/01/17 01:48:32;;;;;;;13.60;11.20;;;;;;;;;;5078249;28;20552;-79
2024/01/17 01:50:59;;;;;;;19.90;13.20;;;;;;;;;;5078928;28;20478;-79
2024/01/17 01:53:28;;;;;;;27.10;14.13;;;;;;;;;;5077233;28;20467;-79
2024/01/17 01:55:55;;;;;;;15.03;11.97;;;;;;;;;;5078785;28;20550;-80
2024/01/17 01:58:23;;;;;;;17.33;13.10;;;;;;;;;;5078141;28;20538;-79
2024/01/17 02:00:51;;;;;;;15.57;11.40;;;;;;;;;;5077458;28;20439;-79
2024/01/17 02:03:17;;;;;;;17.73;12.20;;;;;;;;;;5078291;28;20546;-80
2024/01/17 02:05:44;;;;;;;22.30;13.90;;;;;;;;;;5076910;28;20459;-80
2024/01/17 02:08:11;;;;;;;16.00;12.67;;;;;;;;;;5078323;28;20562;-79
2024/01/17 02:10:40;;;;;;;15.90;12.00;;;;;;;;;;5078533;28;20941;-80
2024/01/17 02:13:07;;;;;;;21.50;13.03;;;;;;;;;;5077969;28;20557;-80
2024/01/17 02:15:36;;;;;;;17.00;12.83;;;;;;;;;;5077595;28;20467;-79
2024/01/17 02:18:03;;;;;;;22.00;15.03;;;;;;;;;;5077192;28;20471;-79
2024/01/17 02:20:29;;;;;;;19.47;12.90;;;;;;;;;;5079127;28;20525;-79
2024/01/17 02:22:55;;;;;;;17.90;13.60;;;;;;;;;;5077259;28;20495;-79
2024/01/17 02:25:23;;;;;;;22.73;14.00;;;;;;;;;;5078762;28;20482;-80
2024/01/17 02:27:50;;;;;;;25.10;14.23;;;;;;;;;;5077210;28;20546;-79
2024/01/17 02:30:17;;;;;;;18.43;13.93;;;;;;;;;;5077239;28;20508;-80
2024/01/17 02:32:45;;;;;;;15.53;13.10;;;;;;;;;;5077817;28;20571;-79
2024/01/17 02:35:12;;;;;;;19.00;14.73;;;;;;;;;;5077352;28;20470;-79
2024/01/17 02:37:39;;;;;;;19.97;14.40;;;;;;;;;;5077288;28;20438;-80
2024/01/17 02:40:05;;;;;;;18.70;14.47;;;;;;;;;;5077962;28;20585;-80
2024/01/17 02:42:33;;;;;;;26.33;15.47;;;;;;;;;;5075493;28;20449;-79
2024/01/17 02:45:00;;;;;;;21.77;14.90;;;;;;;;;;5077392;28;20526;-80
2024/01/17 02:47:26;;;;;;;26.87;14.80;;;;;;;;;;5076401;28;20453;-79
2024/01/17 02:49:53;;;;;;;23.93;13.00;;;;;;;;;;5077371;28;20439;-80
2024/01/17 02:52:19;;;;;;;20.77;15.20;;;;;;;;;;5076521;28;20483;-79
2024/01/17 02:54:46;;;;;;;26.20;15.40;;;;;;;;;;5076985;28;20561;-80
2024/01/17 02:57:13;;;;;;;22.00;15.30;;;;;;;;;;5078632;28;20529;-80
2024/01/17 02:59:41;;;;;;;20.10;15.03;;;;;;;;;;5076696;28;20554;-80
2024/01/17 03:02:08;;;;;;;17.13;13.57;;;;;;;;;;5077039;28;20450;-80
2024/01/17 03:04:35;;;;;;;18.33;13.17;;;;;;;;;;5075722;28;21087;-80
2024/01/17 03:07:01;;;;;;;18.70;13.93;;;;;;;;;;5078223;28;20472;-78
2024/01/17 03:09:28;;;;;;;28.47;14.70;;;;;;;;;;5077342;28;20466;-80
2024/01/17 03:11:54;;;;;;;28.33;16.27;;;;;;;;;;5081182;28;21027;-78
2024/01/17 03:14:23;;;;;;;20.90;14.73;;;;;;;;;;5081569;28;20553;-78
2024/01/17 03:16:50;;;;;;;24.00;14.50;;;;;;;;;;5080144;28;20541;-80
2024/01/17 03:19:17;;;;;;;26.20;15.40;;;;;;;;;;5080794;28;20558;-79
2024/01/17 03:21:46;;;;;;;19.67;14.87;;;;;;;;;;5081029;28;20481;-78
2024/01/17 03:24:13;;;;;;;24.33;16.20;;;;;;;;;;5080938;28;20489;-79
2024/01/17 03:26:39;;;;;;;23.07;16.10;;;;;;;;;;5080864;28;20520;-78
2024/01/17 03:29:06;;;;;;;21.90;14.17;;;;;;;;;;5081124;28;20554;-78
2024/01/17 03:31:33;;;;;;;20.07;12.93;;;;;;;;;;5081195;28;20530;-79
2024/01/17 03:34:01;;;;;;;21.33;14.13;;;;;;;;;;5081102;28;20562;-79
2024/01/17 03:36:27;;;;;;;16.43;12.90;;;;;;;;;;5081623;28;20434;-78
2024/01/17 03:38:54;;;;;;;22.73;15.33;;;;;;;;;;5080591;28;20545;-80
2024/01/17 03:41:20;;;;;;;17.30;13.27;;;;;;;;;;5080211;28;20446;-78
2024/01/17 03:43:47;;;;;;;21.97;14.20;;;;;;;;;;5079358;28;20521;-78
2024/01/17 03:46:14;;;;;;;22.83;13.80;;;;;;;;;;5081736;28;20451;-78
2024/01/17 03:48:40;;;;;;;19.53;14.10;;;;;;;;;;5080227;28;20459;-79
2024/01/17 03:51:08;;;;;;;22.17;14.47;;;;;;;;;;5080717;28;20534;-78
2024/01/17 03:53:35;;;;;;;22.13;14.00;;;;;;;;;;5080276;28;20471;-78
2024/01/17 03:56:01;;;;;;;25.23;14.10;;;;;;;;;;5080339;28;20459;-78
2024/01/17 03:58:27;;;;;;;18.23;13.83;;;;;;;;;;5080775;28;20565;-79
2024/01/17 04:00:55;;;;;;;18.50;14.47;;;;;;;;;;5080811;28;20435;-78
2024/01/17 04:03:21;;;;;;;23.03;15.73;;;;;;;;;;5078639;28;20907;-78
2024/01/17 04:05:48;;;;;;;19.93;13.40;;;;;;;;;;5079909;28;20459;-78
2024/01/17 04:08:16;;;;;;;18.10;13.33;;;;;;;;;;5079871;28;20492;-78
2024/01/17 04:10:42;;;;;;;22.50;13.83;;;;;;;;;;5080072;28;20443;-80
2024/01/17 04:13:09;;;;;;;15.20;13.60;;;;;;;;;;5079641;28;20537;-80
2024/01/17 04:15:35;;;;;;;19.37;13.40;;;;;;;;;;5079527;28;20538;-80
2024/01/17 04:18:02;;;;;;;17.00;13.60;;;;;;;;;;5079514;28;20526;-80
2024/01/17 04:20:28;;;;;;;19.13;13.40;;;;;;;;;;5079927;28;20521;-80
2024/01/17 04:22:55;;;;;;;20.73;13.20;;;;;;;;;;5079208;28;20562;-80
2024/01/17 04:25:24;;;;;;;15.37;11.93;;;;;;;;;;5080054;28;20522;-80
2024/01/17 04:27:50;;;;;;;19.70;15.27;;;;;;;;;;5078954;28;20461;-79
2024/01/17 04:30:17;;;;;;;27.00;13.93;;;;;;;;;;5080389;28;20466;-80
2024/01/17 04:32:43;;;;;;;16.23;12.70;;;;;;;;;;5079397;28;20580;-79
2024/01/17 04:35:11;;;;;;;20.50;13.40;;;;;;;;;;5078772;28;20458;-79
2024/01/17 04:37:39;;;;;;;14.83;13.23;;;;;;;;;;5078751;28;20435;-80
2024/01/17 04:40:06;;;;;;;15.73;13.80;;;;;;;;;;5079376;28;20443;-80
2024/01/17 04:42:35;;;;;;;19.50;13.10;;;;;;;;;;5078784;28;20507;-80
2024/01/17 04:45:02;;;;;;;20.10;14.30;;;;;;;;;;5079899;28;20482;-80
2024/01/17 04:47:31;;;;;;;17.57;11.80;;;;;;;;;;5078469;28;20452;-79
2024/01/17 04:49:58;;;;;;;15.63;12.53;;;;;;;;;;5079210;28;20438;-79
2024/01/17 04:52:24;;;;;;;21.90;12.57;;;;;;;;;;5078938;28;20863;-79
2024/01/17 04:54:50;;;;;;;19.57;12.90;;;;;;;;;;5077151;28;20541;-80
2024/01/17 04:57:17;;;;;;;18.40;12.70;;;;;;;;;;5078988;28;20530;-80
2024/01/17 04:59:45;;;;;;;20.50;13.70;;;;;;;;;;5078589;28;20228;-80
2024/01/17 05:02:11;;;;;;;14.77;11.83;;;;;;;;;;5078874;28;21123;-80
2024/01/17 05:04:38;;;;;;;21.50;12.67;;;;;;;;;;5077939;28;20554;-80
2024/01/17 05:07:04;;;;;;;17.47;12.00;;;;;;;;;;5078929;28;20443;-79
2024/01/17 05:09:32;;;;;;;14.70;11.70;;;;;;;;;;5078072;28;20471;-79
2024/01/17 05:11:59;;;;;;;20.10;12.07;;;;;;;;;;5079344;28;20474;-79
2024/01/17 05:14:26;;;;;;;16.00;12.47;;;;;;;;;;5078592;28;20490;-80
2024/01/17 05:16:54;;;;;;;15.37;10.70;;;;;;;;;;5078654;28;20522;-80
2024/01/17 05:19:20;;;;;;;17.80;11.60;;;;;;;;;;5078322;28;20470;-79
2024/01/17 05:21:47;;;;;;;13.47;11.07;;;;;;;;;;5078030;28;20443;-79
2024/01/17 05:24:14;;;;;;;17.30;11.07;;;;;;;;;;5078337;28;20493;-79
2024/01/17 05:26:40;;;;;;;17.53;11.30;;;;;;;;;;5078238;28;20882;-79
2024/01/17 05:29:07;;;;;;;13.17;11.10;;;;;;;;;;5078000;28;20558;-79
2024/01/17 05:31:33;;;;;;;15.30;11.83;;;;;;;;;;5078348;28;20443;-79
2024/01/17 05:34:03;;;;;;;15.20;10.13;;;;;;;;;;5077661;28;20471;-80
2024/01/17 05:36:29;;;;;;;15.20;10.50;;;;;;;;;;5078429;28;20462;-79
2024/01/17 05:38:56;;;;;;;11.83;9.70;;;;;;;;;;5076832;28;20549;-79
2024/01/17 05:41:23;;;;;;;14.13;11.17;;;;;;;;;;5078360;28;20522;-79
2024/01/17 05:43:50;;;;;;;20.43;12.03;;;;;;;;;;5077693;28;20471;-79
2024/01/17 05:46:17;;;;;;;15.63;10.70;;;;;;;;;;5078903;28;20463;-79
2024/01/17 05:48:43;;;;;;;17.03;8.93;;;;;;;;;;5078922;28;20554;-80
2024/01/17 05:51:13;;;;;;;19.43;10.83;;;;;;;;;;5078786;28;20525;-79
2024/01/17 05:53:41;;;;;;;14.50;11.13;;;;;;;;;;5078418;28;20479;-79
2024/01/17 05:56:09;;;;;;;14.53;11.50;;;;;;;;;;5078998;28;20499;-79
2024/01/17 05:58:36;;;;;;;14.30;10.60;;;;;;;;;;5077076;28;20495;-80
2024/01/17 06:01:02;;;;;;;15.93;10.30;;;;;;;;;;5078049;28;21007;-79
2024/01/17 06:03:29;;;;;;;14.07;10.40;;;;;;;;;;5078132;28;20470;-79
2024/01/17 06:05:58;;;;;;;10.97;9.80;;;;;;;;;;5078069;28;20554;-80
2024/01/17 06:08:26;;;;;;;12.33;10.20;;;;;;;;;;5077922;28;20466;-80
2024/01/17 06:10:53;;;;;;;12.13;9.33;;;;;;;;;;5060182;28;20439;-80
2024/01/17 06:13:19;;;;;;;17.73;11.87;;;;;;;;;;5078214;28;20566;-80
2024/01/17 06:15:46;;;;;;;14.37;10.73;;;;;;;;;;5077804;28;20493;-79
2024/01/17 06:18:13;;;;;;;15.60;11.07;;;;;;;;;;5077764;28;20538;-80
2024/01/17 06:20:39;;;;;;;12.97;10.17;;;;;;;;;;5077713;28;20449;-79
2024/01/17 06:23:06;;;;;;;14.77;11.33;;;;;;;;;;5078028;28;20554;-80
2024/01/17 06:25:34;;;;;;;15.77;10.17;;;;;;;;;;5078069;28;20523;-79
2024/01/17 06:28:00;;;;;;;13.37;9.80;;;;;;;;;;5077728;28;20471;-79
2024/01/17 06:30:27;;;;;;;15.10;9.50;;;;;;;;;;5077547;28;20446;-79
2024/01/17 06:32:53;;;;;;;15.00;10.20;;;;;;;;;;5077088;28;20553;-79
2024/01/17 06:35:19;;;;;;;26.47;10.33;;;;;;;;;;5077686;28;20455;-80
2024/01/17 06:37:46;;;;;;;12.13;10.33;;;;;;;;;;5077116;28;20538;-79
2024/01/17 06:40:13;;;;;;;16.60;11.90;;;;;;;;;;5077451;28;20439;-79
2024/01/17 06:42:41;;;;;;;16.60;11.70;;;;;;;;;;5075686;28;20529;-79
2024/01/17 06:45:10;;;;;;;13.40;9.30;;;;;;;;;;5081352;28;20454;-80
2024/01/17 06:47:37;;;;;;;14.53;9.90;;;;;;;;;;5081350;28;20537;-79
2024/01/17 06:50:04;;;;;;;13.70;10.57;;;;;;;;;;5082052;28;20873;-79
2024/01/17 06:52:31;;;;;;;14.33;10.37;;;;;;;;;;5081233;28;20529;-80
2024/01/17 06:54:57;;;;;;;17.30;12.20;;;;;;;;;;5081237;28;20493;-80
2024/01/17 06:57:24;;;;;;;13.37;10.30;;;;;;;;;;5081776;28;20478;-79
2024/01/17 06:59:52;;;;;;;12.73;10.20;;;;;;;;;;5080472;28;20545;-79
2024/01/17 07:02:18;;;;;;;16.37;12.03;;;;;;;;;;5081775;28;20439;-79
2024/01/17 07:04:45;;;;;;;14.00;10.70;;;;;;;;;;5079776;28;20470;-80
2024/01/17 07:07:11;;;;;;;16.33;10.83;;;;;;;;;;5081082;28;20439;-79
2024/01/17 07:09:38;;;;;;;20.60;11.60;;;;;;;;;;5080143;28;20907;-79
2024/01/17 07:12:05;;;;;;;11.67;10.43;;;;;;;;;;5079058;28;20449;-79
2024/01/17 07:14:31;;;;;;;13.97;10.47;;;;;;;;;;5078194;28;20492;-79
2024/01/17 07:16:59;;;;;;;14.07;10.70;;;;;;;;;;5078781;28;20803;-79
2024/01/17 07:19:26;;;;;;;12.27;10.43;;;;;;;;;;5078537;28;20501;-79
2024/01/17 07:21:54;;;;;;;19.53;10.90;;;;;;;;;;5078824;28;20444;-79
2024/01/17 07:24:20;;;;;;;13.53;11.20;;;;;;;;;;5078284;28;20471;-79
2024/01/17 07:26:47;;;;;;;15.83;11.60;;;;;;;;;;5078921;28;20529;-79
2024/01/17 07:29:13;;;;;;;15.67;11.53;;;;;;;;;;5078048;28;20922;-79
2024/01/17 07:31:40;;;;;;;14.60;11.77;;;;;;;;;;5080892;28;20479;-79
2024/01/17 07:34:08;;;;;;;15.70;11.63;;;;;;;;;;5079804;28;20565;-79
2024/01/17 07:36:34;;;;;;;15.40;10.20;;;;;;;;;;5082542;28;20522;-79
2024/01/17 07:39:00;;;;;;;19.70;11.63;;;;;;;;;;5082454;28;20557;-79
2024/01/17 07:41:29;;;;;;;21.60;11.23;;;;;;;;;;5085052;28;20521;-78
2024/01/17 07:44:00;;;;;;;14.53;10.43;;;;;;;;;;5085242;28;20565;-80
2024/01/17 07:46:27;;;;;;;15.70;10.60;;;;;;;;;;5085989;28;20442;-80
2024/01/17 07:48:54;;;;;;;17.13;10.53;;;;;;;;;;5086415;28;20543;-79
2024/01/17 07:51:22;;;;;;;18.70;12.13;;;;;;;;;;5086344;28;20834;-79
2024/01/17 07:53:49;;;;;;;11.80;10.47;;;;;;;;;;5085746;28;20506;-78
2024/01/17 07:56:15;;;;;;;14.33;11.60;;;;;;;;;;5084120;28;20497;-79
2024/01/17 07:58:42;;;;;;;11.97;9.73;;;;;;;;;;5086121;28;20506;-79
2024/01/17 08:01:09;;;;;;;12.67;10.17;;;;;;;;;;5086515;28;20483;-78
2024/01/17 08:03:35;;;;;;;19.20;11.67;;;;;;;;;;5086412;28;20471;-78
2024/01/17 08:06:02;;;;;;;17.77;12.40;;;;;;;;;;5085028;28;20469;-79
2024/01/17 08:08:30;;;;;;;20.13;11.73;;;;;;;;;;5083960;28;20474;-79
2024/01/17 08:10:56;;;;;;;14.30;11.90;;;;;;;;;;5086328;28;20526;-79
2024/01/17 08:13:23;;;;;;;12.20;11.00;;;;;;;;;;5085539;28;21012;-79
2024/01/17 08:15:50;;;;;;;17.47;10.70;;;;;;;;;;5085880;28;20487;-79
2024/01/17 08:18:17;;;;;;;16.27;11.20;;;;;;;;;;5085363;28;20467;-79
2024/01/17 08:20:43;;;;;;;17.90;10.70;;;;;;;;;;5085892;28;20451;-79
2024/01/17 08:23:10;;;;;;;13.67;9.77;;;;;;;;;;5085508;28;20467;-79
2024/01/17 08:25:38;;;;;;;19.70;11.10;;;;;;;;;;5085097;28;20463;-79
2024/01/17 08:28:05;;;;;;;21.23;12.27;;;;;;;;;;5084738;28;20487;-79
2024/01/17 08:30:32;;;;;;;14.80;10.53;;;;;;;;;;5085475;28;20522;-78
2024/01/17 08:32:59;;;;;;;13.40;9.60;;;;;;;;;;5085099;28;20486;-78
2024/01/17 08:35:26;;;;;;;15.50;9.27;;;;;;;;;;5085441;28;20569;-79
2024/01/17 08:37:53;;;;;;;19.80;11.70;;;;;;;;;;5083364;28;20458;-78
2024/01/17 08:40:20;;;;;;;18.03;10.70;;;;;;;;;;5084031;28;20451;-79
2024/01/17 08:42:48;;;;;;;13.97;9.87;;;;;;;;;;5085321;28;20514;-78
2024/01/17 08:45:18;;;;;;;14.43;10.90;;;;;;;;;;5083876;28;20482;-78
2024/01/17 08:47:45;;;;;;;10.40;9.23;;;;;;;;;;5084516;28;20446;-78
2024/01/17 08:50:13;;;;;;;14.70;10.00;;;;;;;;;;5085097;28;20450;-79
2024/01/17 08:52:39;;;;;;;12.27;8.93;;;;;;;;;;5083693;28;20435;-78
2024/01/17 08:55:08;;;;;;;16.87;11.07;;;;;;;;;;5083223;28;20536;-78
2024/01/17 08:57:36;;;;;;;19.43;10.83;;;;;;;;;;5083626;28;20530;-80
2024/01/17 09:00:08;;;;;;;14.73;10.57;;;;;;;;;;5085276;28;20447;-79
2024/01/17 09:02:35;;;;;;;14.40;9.20;;;;;;;;;;5084116;28;20793;-80
2024/01/17 09:05:02;;;;;;;16.13;10.10;;;;;;;;;;5084683;28;20459;-80
2024/01/17 09:07:31;;;;;;;13.13;9.93;;;;;;;;;;5082198;28;20507;-78
2024/01/17 09:09:57;;;;;;;15.97;9.57;;;;;;;;;;5084695;28;20867;-79
2024/01/17 09:12:25;;;;;;;16.33;9.57;;;;;;;;;;5085382;28;20518;-78
2024/01/17 09:14:52;;;;;;;16.03;10.23;;;;;;;;;;5083253;28;20517;-78
2024/01/17 09:17:19;;;;;;;15.90;10.10;;;;;;;;;;5084710;28;20551;-78
2024/01/17 09:19:46;;;;;;;16.33;9.87;;;;;;;;;;5084246;28;20471;-79
2024/01/17 09:22:13;;;;;;;11.47;8.30;;;;;;;;;;5084879;28;20443;-79
2024/01/17 09:24:41;;;;;;;17.77;10.60;;;;;;;;;;5083668;28;20568;-80
2024/01/17 09:27:07;;;;;;;11.83;8.83;;;;;;;;;;5085146;28;20451;-79
2024/01/17 09:29:34;;;;;;;10.50;7.50;;;;;;;;;;5083746;28;20916;-79
2024/01/17 09:32:01;;;;;;;11.07;7.97;;;;;;;;;;5084797;28;20435;-79
2024/01/17 09:34:29;;;;;;;15.90;9.10;;;;;;;;;;5083195;28;20481;-78
2024/01/17 09:36:55;;;;;;;14.63;8.30;;;;;;;;;;5084099;28;20439;-79
2024/01/17 09:39:23;;;;;;;11.17;7.73;;;;;;;;;;5083634;28;20530;-79
2024/01/17 09:41:49;;;;;;;13.03;8.40;;;;;;;;;;5084796;28;20975;-79
2024/01/17 09:44:16;;;;;;;13.43;9.60;;;;;;;;;;5084115;28;20475;-79
2024/01/17 09:46:44;;;;;;;8.10;7.10;;;;;;;;;;5084426;28;20479;-79
2024/01/17 09:49:11;;;;;;;10.40;8.47;;;;;;;;;;5083899;28;20498;-79
2024/01/17 09:51:39;;;;;;;14.70;7.97;;;;;;;;;;5084135;28;20450;-79
2024/01/17 09:54:05;;;;;;;12.97;9.03;;;;;;;;;;5084402;28;20522;-79
2024/01/17 09:56:33;;;;;;;10.07;8.60;;;;;;;;;;5084425;28;20495;-79
2024/01/17 09:59:00;;;;;;;12.50;8.80;;;;;;;;;;5083300;28;20474;-79
2024/01/17 10:01:30;;;;;;;9.50;6.70;;;;;;;;;;5084392;28;20877;-79
2024/01/17 10:03:58;;;;;;;11.37;7.40;;;;;;;;;;5083602;28;20902;-79
2024/01/17 10:06:26;;;;;;;15.73;8.37;;;;;;;;;;5084412;28;20522;-79
2024/01/17 10:08:54;;;;;;;15.33;9.00;;;;;;;;;;5081564;28;20471;-78
2024/01/17 10:11:20;;;;;;;14.53;9.00;;;;;;;;;;5083144;28;20539;-79
2024/01/17 10:13:47;;;;;;;13.47;8.10;;;;;;;;;;5083615;28;20470;-79
2024/01/17 10:16:13;;;;;;;15.23;8.67;;;;;;;;;;5082625;28;20494;-79
2024/01/17 10:18:41;;;;;;;12.97;9.13;;;;;;;;;;5083114;28;20545;-79
2024/01/17 10:21:08;;;;;;;13.07;8.47;;;;;;;;;;5084017;28;20478;-79
2024/01/17 10:23:34;;;;;;;9.23;7.37;;;;;;;;;;5083366;28;20475;-79
2024/01/17 10:26:04;;;;;;;17.00;9.17;;;;;;;;;;5083568;28;20542;-79
2024/01/17 10:28:33;;;;;;;10.10;8.47;;;;;;;;;;5083384;28;20521;-79
2024/01/17 10:31:02;;;;;;;16.80;9.93;;;;;;;;;;5084169;28;20442;-79
2024/01/17 10:33:29;;;;;;;11.80;9.27;;;;;;;;;;5081875;28;20538;-79
2024/01/17 10:35:56;;;;;;;11.37;8.70;;;;;;;;;;5082151;28;20550;-79
2024/01/17 10:38:22;;;;;;;12.63;8.23;;;;;;;;;;5083046;28;20534;-79
2024/01/17 10:41:03;;;;;;;8.63;7.10;;;;;;;;;;5083025;28;20519;-79
2024/01/17 10:43:31;;;;;;;12.70;8.03;;;;;;;;;;5082751;28;20481;-80
2024/01/17 10:45:57;;;;;;;12.87;7.20;;;;;;;;;;5083158;28;20526;-79
2024/01/17 10:48:24;;;;;;;9.30;7.40;;;;;;;;;;5082228;28;20545;-79
2024/01/17 10:50:52;;;;;;;12.63;8.60;;;;;;;;;;5079650;28;20469;-79
2024/01/17 10:53:19;;;;;;;20.63;8.37;;;;;;;;;;5083703;28;20526;-79
2024/01/17 10:55:46;;;;;;;14.83;8.50;;;;;;;;;;5082325;28;20470;-79
2024/01/17 10:58:14;;;;;;;13.50;9.13;;;;;;;;;;5083746;28;20807;-80
2024/01/17 11:00:45;;;;;;;11.27;7.67;;;;;;;;;;5083013;28;20534;-79
2024/01/17 11:03:14;;;;;;;11.17;7.30;;;;;;;;;;5083249;28;20457;-79
2024/01/17 11:05:44;;;;;;;19.97;11.23;;;;;;;;;;5083201;28;20542;-79
2024/01/17 11:08:10;;;;;;;15.83;8.40;;;;;;;;;;5082925;28;20437;-79
2024/01/17 11:10:37;;;;;;;12.33;8.63;;;;;;;;;;5083561;28;20534;-79
2024/01/17 11:13:07;;;;;;;16.70;9.13;;;;;;;;;;5082290;28;20441;-79
2024/01/17 11:15:36;;;;;;;11.80;9.03;;;;;;;;;;5082852;28;20475;-79
2024/01/17 11:18:05;;;;;;;20.73;10.13;;;;;;;;;;5083088;28;20438;-79
2024/01/17 11:20:32;;;;;;;12.67;8.10;;;;;;;;;;5081746;28;21040;-79
2024/01/17 11:23:01;;;;;;;14.27;8.80;;;;;;;;;;5082719;28;20451;-79
2024/01/17 11:25:30;;;;;;;14.13;9.70;;;;;;;;;;5081842;28;20490;-79
2024/01/17 11:28:04;;;;;;;16.33;11.00;;;;;;;;;;5081847;28;20516;-80
2024/01/17 11:30:40;;;;;;;18.90;10.60;;;;;;;;;;5082605;28;21010;-79
2024/01/17 11:33:10;;;;;;;10.57;7.70;;;;;;;;;;5086494;28;20438;-80
2024/01/17 11:35:46;;;;;;;12.83;9.53;;;;;;;;;;5085914;28;20474;-79
2024/01/17 11:38:31;;;;;;;15.93;10.63;;;;;;;;;;5084839;28;20488;-79
2024/01/17 11:40:58;;;;;;;11.70;8.73;;;;;;;;;;5086114;28;20470;-79
2024/01/17 11:43:29;;;;;;;18.10;7.70;;;;;;;;;;5085772;28;20435;-79
2024/01/17 11:45:56;;;;;;;25.93;9.50;;;;;;;;;;5085888;28;20532;-79
2024/01/17 11:48:26;;;;;;;12.17;8.67;;;;;;;;;;5086090;28;20944;-80
2024/01/17 11:51:00;;;;;;;10.33;7.83;;;;;;;;;;5086090;28;20561;-79
2024/01/17 11:53:27;;;;;;;13.17;9.50;;;;;;;;;;5086267;28;20430;-79
2024/01/17 11:55:53;;;;;;;14.10;8.93;;;;;;;;;;5083900;28;20532;-78
2024/01/17 11:58:23;;;;;;;14.30;9.33;;;;;;;;;;5086220;28;20506;-80
2024/01/17 12:00:51;;;;;;;10.83;8.20;;;;;;;;;;5085173;28;20549;-79
2024/01/17 12:03:31;;;;;;;14.03;8.57;;;;;;;;;;5086107;28;21027;-79
2024/01/17 12:05:57;;;;;;;10.03;8.00;;;;;;;;;;5084891;28;20467;-79
2024/01/17 12:08:24;;;;;;;15.70;8.60;;;;;;;;;;5085092;28;20530;-79
2024/01/17 12:10:53;;;;;;;17.93;9.13;;;;;;;;;;5083370;28;20467;-79
2024/01/17 12:13:19;;;;;;;13.47;9.30;;;;;;;;;;5085439;28;20439;-79
2024/01/17 12:15:48;;;;;;;12.40;8.47;;;;;;;;;;5084432;28;20561;-80
2024/01/17 12:18:18;;;;;;;13.10;9.00;;;;;;;;;;5085565;28;20443;-79
2024/01/17 12:20:47;;;;;;;17.13;10.40;;;;;;;;;;5084499;28;20475;-79
2024/01/17 12:23:14;;;;;;;19.20;11.47;;;;;;;;;;5085544;28;20510;-80
2024/01/17 12:25:40;;;;;;;13.83;10.20;;;;;;;;;;5085595;28;20491;-80
2024/01/17 12:28:10;;;;;;;13.33;9.00;;;;;;;;;;5085322;28;20514;-79
2024/01/17 12:30:39;;;;;;;17.60;10.00;;;;;;;;;;5084633;28;20475;-79
2024/01/17 12:33:05;;;;;;;11.60;8.43;;;;;;;;;;5085251;28;20446;-79
2024/01/17 12:35:32;;;;;;;14.07;8.73;;;;;;;;;;5084117;28;21083;-79
2024/01/17 12:38:02;;;;;;;18.93;11.70;;;;;;;;;;5085068;28;20510;-79
2024/01/17 12:40:29;;;;;;;15.07;10.37;;;;;;;;;;5084590;28;20542;-79
2024/01/17 12:42:57;;;;;;;17.00;9.70;;;;;;;;;;5084686;28;20506;-79
2024/01/17 12:45:24;;;;;;;14.50;9.40;;;;;;;;;;5084512;28;20471;-79
2024/01/17 12:47:52;;;;;;;16.00;9.53;;;;;;;;;;5085476;28;20514;-79
2024/01/17 12:50:18;;;;;;;16.07;10.80;;;;;;;;;;5084036;28;20471;-79
2024/01/17 12:52:45;;;;;;;44.83;11.57;;;;;;;;;;5084803;28;20471;-79
2024/01/17 12:55:14;;;;;;;15.03;9.80;;;;;;;;;;5084184;28;20558;-79
2024/01/17 12:57:41;;;;;;;13.70;9.90;;;;;;;;;;5084853;28;20435;-80
2024/01/17 13:00:10;;;;;;;18.07;10.77;;;;;;;;;;5084193;28;20462;-79
2024/01/17 13:02:37;;;;;;;18.77;10.53;;;;;;;;;;5085161;28;20504;-79
2024/01/17 13:05:08;;;;;;;13.90;9.47;;;;;;;;;;5084235;28;20502;-79
2024/01/17 13:07:34;;;;;;;18.63;12.00;;;;;;;;;;5084869;28;20447;-79
2024/01/17 13:10:15;;;;;;;18.77;9.73;;;;;;;;;;5084405;28;20507;-79
2024/01/17 13:12:42;;;;;;;16.13;10.83;;;;;;;;;;5085007;28;20453;-79
2024/01/17 13:15:09;;;;;;;23.67;10.97;;;;;;;;;;5083151;28;20498;-80
2024/01/17 13:17:37;;;;;;;18.07;10.43;;;;;;;;;;5085086;28;20493;-79
2024/01/17 13:20:11;;;;;;;14.30;10.00;;;;;;;;;;5084418;28;20467;-79
2024/01/17 13:22:37;;;;;;;13.90;9.33;;;;;;;;;;5085220;28;20491;-79
2024/01/17 13:25:05;;;;;;;17.03;10.60;;;;;;;;;;5083086;28;20549;-79
2024/01/17 13:27:34;;;;;;;14.70;9.87;;;;;;;;;;5083608;28;21014;-80
2024/01/17 13:30:03;;;;;;;14.00;10.10;;;;;;;;;;5083458;28;20494;-79
2024/01/17 13:32:30;;;;;;;17.20;11.30;;;;;;;;;;5084713;28;20533;-79
2024/01/17 13:34:56;;;;;;;14.90;10.80;;;;;;;;;;5083721;28;20473;-80
2024/01/17 13:37:23;;;;;;;12.23;9.27;;;;;;;;;;5084839;28;20510;-79
2024/01/17 13:39:53;;;;;;;16.80;10.37;;;;;;;;;;5084280;28;20789;-79
2024/01/17 13:42:20;;;;;;;15.53;10.33;;;;;;;;;;5084988;28;20455;-79
2024/01/17 13:44:48;;;;;;;12.20;10.37;;;;;;;;;;5083793;28;20477;-80
2024/01/17 13:47:16;;;;;;;12.53;11.20;;;;;;;;;;5083972;28;20494;-80
2024/01/17 13:49:46;;;;;;;18.10;10.53;;;;;;;;;;5083967;28;20813;-80
2024/01/17 13:52:20;;;;;;;16.80;10.33;;;;;;;;;;5083048;28;20514;-79
2024/01/17 13:54:46;;;;;;;15.17;9.57;;;;;;;;;;5082673;28;20463;-80
2024/01/17 13:57:13;;;;;;;21.40;10.97;;;;;;;;;;5084516;28;20555;-79
2024/01/17 13:59:41;;;;;;;16.57;10.17;;;;;;;;;;5082100;28;20465;-80
2024/01/17 14:02:10;;;;;;;17.37;10.60;;;;;;;;;;5084068;28;20972;-79
2024/01/17 14:04:37;;;;;;;17.70;9.87;;;;;;;;;;5083457;28;20455;-79
2024/01/17 14:07:05;;;;;;;18.50;11.47;;;;;;;;;;5084237;28;20530;-79
2024/01/17 14:09:32;;;;;;;13.80;9.13;;;;;;;;;;5082931;28;20457;-79
2024/01/17 14:11:59;;;;;;;18.40;10.97;;;;;;;;;;5082288;28;20471;-79
2024/01/17 14:14:28;;;;;;;13.23;9.70;;;;;;;;;;5083663;28;20489;-81
2024/01/17 14:16:55;;;;;;;13.53;9.20;;;;;;;;;;5074405;28;21011;-78
2024/01/17 14:19:32;;;;;;;11.80;8.80;;;;;;;;;;5084936;28;20821;-78
2024/01/17 14:21:58;;;;;;;16.17;10.57;;;;;;;;;;5084532;28;20492;-78